Time;durP1;ratioP1;P1;durP2;ratioP2;P2;SDS_P1;SDS_P2;PMS_P1;PMS_P2;Temp;Humidity;BMP_temperature;BMP_pressure;BME280_temperature;BME280_humidity;BME280_pressure;Samples;Min_cycle;Max_cycle;Signal;HPM_P1;HPM_P2
2022/09/04 00:02:16;;;;;;;5.50;2.40;;;;;;;27.19;38.90;101037.47;5036457;28;20147;-51
2022/09/04 00:05:18;;;;;;;6.93;2.45;;;;;;;27.20;39.11;101033.59;5034825;28;20044;-52
2022/09/04 00:08:22;;;;;;;6.15;2.53;;;;;;;26.66;39.25;101035.44;5040102;28;20104;-54
2022/09/04 00:11:11;;;;;;;13.13;3.22;;;;;;;26.18;40.02;101039.44;5048972;28;20386;-50
2022/09/04 00:13:43;;;;;;;13.10;2.90;;;;;;;26.24;40.04;101042.88;5033688;28;20404;-51
2022/09/04 00:16:23;;;;;;;9.52;2.92;;;;;;;26.40;41.07;101035.97;5041399;28;20428;-50
2022/09/04 00:19:22;;;;;;;9.05;3.15;;;;;;;26.02;40.65;101036.19;5050037;28;20024;-54
2022/09/04 00:22:00;;;;;;;6.70;2.33;;;;;;;26.21;41.83;101027.88;5031629;28;20522;-52
2022/09/04 00:24:37;;;;;;;10.60;2.83;;;;;;;26.45;40.55;101027.66;5033156;28;20081;-52
2022/09/04 00:27:18;;;;;;;12.02;3.80;;;;;;;26.24;40.53;101020.94;5033173;28;20112;-52
2022/09/04 00:29:56;;;;;;;6.75;2.70;;;;;;;26.25;40.66;101017.06;5042812;28;20510;-52
2022/09/04 00:32:48;;;;;;;6.13;2.55;;;;;;;25.76;41.43;101011.22;5050355;28;20395;-51
2022/09/04 00:35:36;;;;;;;14.30;3.38;;;;;;;25.58;41.54;101025.75;5046368;28;20110;-53
2022/09/04 00:38:42;;;;;;;9.05;2.60;;;;;;;25.36;42.17;101015.47;5040171;28;20079;-53
2022/09/04 00:41:50;;;;;;;9.35;2.33;;;;;;;25.60;42.04;101017.25;5033061;28;20032;-55
2022/09/04 00:44:27;;;;;;;9.02;2.88;;;;;;;25.74;41.71;101018.09;4933765;29;20471;-54
2022/09/04 00:47:28;;;;;;;6.30;2.75;;;;;;;25.49;41.82;101014.69;5020331;28;20087;-53
2022/09/04 00:50:22;;;;;;;9.10;3.30;;;;;;;25.48;42.86;101018.53;5042000;28;20071;-54
2022/09/04 00:53:08;;;;;;;11.30;2.85;;;;;;;25.50;42.49;101013.59;5038382;28;20104;-56
2022/09/04 00:55:49;;;;;;;9.65;2.78;;;;;;;24.82;42.96;101021.53;5038975;28;20063;-53
2022/09/04 00:58:47;;;;;;;6.90;2.50;;;;;;;24.77;43.54;101019.69;5033795;28;20499;-55
2022/09/04 01:01:25;;;;;;;11.32;3.28;;;;;;;24.55;44.13;101027.69;5037494;28;20442;-54
2022/09/04 01:04:13;;;;;;;9.25;3.08;;;;;;;24.37;44.35;101018.34;5045245;28;20471;-54
2022/09/04 01:07:16;;;;;;;11.05;3.65;;;;;;;24.31;44.25;101014.81;5052000;28;20116;-52
2022/09/04 01:10:00;;;;;;;10.57;3.78;;;;;;;24.54;44.14;101018.69;5052148;28;20033;-52
2022/09/04 01:12:39;;;;;;;14.77;3.17;;;;;;;24.55;44.21;101024.97;5052310;28;20025;-52
2022/09/04 01:15:27;;;;;;;9.45;3.20;;;;;;;24.46;44.59;101022.88;5052181;28;20037;-52
2022/09/04 01:17:59;;;;;;;12.52;3.15;;;;;;;24.56;44.48;101024.66;5052471;28;20056;-52
2022/09/04 01:20:37;;;;;;;9.68;2.92;;;;;;;24.46;44.73;101027.53;5051440;28;20111;-52
2022/09/04 01:23:22;;;;;;;8.25;3.50;;;;;;;24.32;45.02;101027.41;5051927;28;20025;-53
2022/09/04 01:26:08;;;;;;;13.23;2.95;;;;;;;24.03;45.32;101030.22;5051584;28;20037;-51
2022/09/04 01:28:43;;;;;;;7.07;2.83;;;;;;;24.03;45.03;101027.47;5052125;28;20045;-51
2022/09/04 01:31:31;;;;;;;11.50;3.22;;;;;;;24.29;45.12;101033.47;5051946;28;20368;-52
2022/09/04 01:34:34;;;;;;;13.25;3.15;;;;;;;23.93;45.66;101027.59;5052109;28;20028;-52
2022/09/04 01:37:03;;;;;;;10.10;3.05;;;;;;;23.63;47.00;101017.81;5051109;28;20056;-52
2022/09/04 01:39:33;;;;;;;9.02;3.08;;;;;;;23.73;46.97;101019.63;5052132;28;20025;-54
2022/09/04 01:42:19;;;;;;;14.60;3.33;;;;;;;23.82;46.84;101015.16;5052209;28;20115;-53
2022/09/04 01:44:47;;;;;;;10.30;3.50;;;;;;;23.59;47.41;101014.81;5052099;28;20035;-55
2022/09/04 01:47:33;;;;;;;11.65;3.00;;;;;;;23.53;47.12;101013.22;5051600;28;20067;-54
2022/09/04 01:50:25;;;;;;;14.23;3.45;;;;;;;23.18;48.02;101011.66;5051643;28;20391;-54
2022/09/04 01:53:13;;;;;;;10.85;3.72;;;;;;;23.07;48.30;101013.66;5051352;28;20426;-54
2022/09/04 01:56:14;;;;;;;12.77;3.58;;;;;;;23.29;48.01;101020.56;5045552;28;20442;-52
2022/09/04 01:58:54;;;;;;;14.77;3.80;;;;;;;23.22;48.22;101015.44;5036564;28;20032;-49
2022/09/04 02:01:23;;;;;;;11.32;4.00;;;;;;;22.92;48.92;101017.31;5034448;28;20032;-49
2022/09/04 02:04:08;;;;;;;9.43;3.72;;;;;;;22.92;49.00;101021.94;5030757;28;20025;-50
2022/09/04 02:06:53;;;;;;;14.20;4.25;;;;;;;22.66;50.14;101024.03;5030831;28;20060;-47
2022/09/04 02:09:32;;;;;;;12.05;3.97;;;;;;;22.54;50.45;101023.53;5031728;28;20104;-49
2022/09/04 02:12:28;;;;;;;14.50;4.75;;;;;;;22.42;50.80;101021.13;5031857;28;20049;-50
2022/09/04 02:14:55;;;;;;;14.07;4.20;;;;;;;21.96;52.49;101017.78;5033507;28;20606;-48
2022/09/04 02:17:46;;;;;;;13.68;3.95;;;;;;;22.19;51.78;101024.53;5032893;28;20079;-48
2022/09/04 02:20:27;;;;;;;14.05;3.80;;;;;;;22.05;52.59;101021.56;5033400;28;20036;-49
2022/09/04 02:23:04;;;;;;;17.40;4.35;;;;;;;21.98;52.63;101018.28;5030653;28;20044;-49
2022/09/04 02:26:02;;;;;;;16.27;4.38;;;;;;;21.92;52.53;101027.59;5039046;28;20068;-49
2022/09/04 02:28:28;;;;;;;17.48;4.25;;;;;;;21.98;52.71;101021.84;5039674;28;20057;-48
2022/09/04 02:31:00;;;;;;;12.93;3.83;;;;;;;21.81;53.17;101018.63;5031559;28;20387;-50
2022/09/04 02:33:43;;;;;;;14.10;3.90;;;;;;;21.72;53.36;101015.66;5029947;28;20498;-49
2022/09/04 02:36:24;;;;;;;15.35;4.07;;;;;;;21.76;53.47;101011.25;5030987;28;20108;-48
2022/09/04 02:39:16;;;;;;;22.08;4.50;;;;;;;21.75;53.42;101015.09;5031960;28;20026;-48
2022/09/04 02:41:49;;;;;;;23.60;5.10;;;;;;;21.80;53.41;101017.00;5031207;28;20032;-49
2022/09/04 02:44:15;;;;;;;19.08;5.38;;;;;;;21.65;53.22;101014.28;5031156;28;20033;-50
2022/09/04 02:47:04;;;;;;;13.18;3.45;;;;;;;21.54;53.73;101005.31;5035326;28;20042;-49
2022/09/04 02:50:06;;;;;;;15.32;5.07;;;;;;;21.37;54.35;101015.69;5031254;28;20526;-49
2022/09/04 02:52:41;;;;;;;14.93;4.40;;;;;;;21.25;55.17;101007.78;5044436;28;20147;-50
2022/09/04 02:55:44;;;;;;;10.77;4.78;;;;;;;21.29;54.89;101017.88;5040432;28;20067;-51
2022/09/04 02:58:31;;;;;;;13.60;4.47;;;;;;;21.13;55.70;101007.25;5023597;28;20124;-52
2022/09/04 03:01:21;;;;;;;17.98;4.45;;;;;;;21.04;56.11;101010.53;5053581;28;20368;-53
2022/09/04 03:03:58;;;;;;;15.68;4.40;;;;;;;20.94;56.29;101017.88;5050995;28;20075;-53
2022/09/04 03:06:41;;;;;;;18.20;6.32;;;;;;;20.78;56.87;101014.31;5047391;28;20037;-51
2022/09/04 03:09:36;;;;;;;17.17;5.07;;;;;;;20.76;56.77;101020.00;5054899;28;20065;-51
2022/09/04 03:12:25;;;;;;;19.83;5.38;;;;;;;20.75;56.64;101018.38;5042231;28;20167;-51
2022/09/04 03:15:26;;;;;;;10.68;3.40;;;;;;;20.65;57.30;101014.81;5034836;28;20079;-53
2022/09/04 03:18:08;;;;;;;15.63;6.47;;;;;;;20.71;56.80;101022.72;5003249;28;20079;-53
2022/09/04 03:20:50;;;;;;;17.08;5.15;;;;;;;20.45;57.71;101021.00;5034863;28;20025;-50
2022/09/04 03:23:21;;;;;;;15.32;4.85;;;;;;;20.66;56.92;101030.88;5039426;28;20037;-53
2022/09/04 03:26:14;;;;;;;12.70;4.45;;;;;;;20.26;58.58;101026.06;5037891;28;20056;-51
2022/09/04 03:28:47;;;;;;;15.57;4.03;;;;;;;20.24;58.52;101028.25;5034540;28;20045;-51
2022/09/04 03:31:32;;;;;;;14.55;4.85;;;;;;;20.37;58.10;101038.63;5034348;28;20064;-49
2022/09/04 03:34:10;;;;;;;18.02;4.97;;;;;;;20.09;59.40;101030.91;5033856;28;20025;-54
2022/09/04 03:36:42;;;;;;;15.48;4.45;;;;;;;20.08;59.08;101043.66;5034040;28;20025;-51
2022/09/04 03:39:29;;;;;;;14.20;4.43;;;;;;;19.95;59.64;101044.16;5034253;28;20021;-49
2022/09/04 03:42:15;;;;;;;12.43;4.28;;;;;;;19.90;59.59;101049.56;5043940;28;20029;-52
2022/09/04 03:44:59;;;;;;;11.75;4.78;;;;;;;19.86;60.00;101043.00;5043382;28;20041;-49
2022/09/04 03:47:31;;;;;;;14.57;4.38;;;;;;;19.89;60.05;101059.59;5034002;28;20091;-52
2022/09/04 03:50:32;;;;;;;23.90;5.25;;;;;;;19.98;59.86;101057.19;5033968;28;20095;-51
2022/09/04 03:53:27;;;;;;;15.43;4.63;;;;;;;19.78;61.03;101066.88;5010933;28;20542;-50
2022/09/04 03:56:32;;;;;;;15.68;5.00;;;;;;;19.83;60.68;101062.56;5024631;28;20148;-51
2022/09/04 03:59:15;;;;;;;13.93;4.50;;;;;;;19.84;61.05;101062.28;5021220;28;20036;-50
2022/09/04 04:01:50;;;;;;;17.27;4.97;;;;;;;19.43;62.64;101059.25;5033394;28;20522;-49
2022/09/04 04:04:37;;;;;;;16.25;4.75;;;;;;;19.64;62.27;101067.56;5053144;28;20040;-50
2022/09/04 04:07:27;;;;;;;14.30;6.10;;;;;;;19.45;62.90;101069.84;5051644;28;20442;-48
2022/09/04 04:10:18;;;;;;;17.30;4.28;;;;;;;19.61;62.91;101076.25;5035741;28;20032;-48
2022/09/04 04:12:56;;;;;;;18.75;4.70;;;;;;;19.66;62.67;101074.41;5039627;28;20483;-48
2022/09/04 04:15:56;;;;;;;12.23;4.57;;;;;;;19.49;63.50;101071.78;5052774;28;20116;-52
2022/09/04 04:18:39;;;;;;;25.33;4.60;;;;;;;19.48;63.51;101088.31;5048710;28;20036;-50
2022/09/04 04:21:11;;;;;;;16.48;4.90;;;;;;;19.32;64.05;101081.97;5035324;28;20387;-52
2022/09/04 04:24:06;;;;;;;15.35;4.88;;;;;;;19.24;65.11;101082.44;5033696;28;20435;-52
2022/09/04 04:26:50;;;;;;;15.98;4.68;;;;;;;19.28;65.09;101086.28;5033491;28;20037;-52
2022/09/04 04:29:38;;;;;;;21.42;5.45;;;;;;;19.12;65.96;101087.19;5037613;28;20372;-51
2022/09/04 04:32:25;;;;;;;14.23;4.30;;;;;;;19.08;66.19;101091.50;5052846;28;20095;-53
2022/09/04 04:35:05;;;;;;;18.15;5.82;;;;;;;18.98;67.00;101095.72;5052822;28;20035;-52
2022/09/04 04:38:13;;;;;;;19.83;5.03;;;;;;;18.98;67.20;101092.22;5039302;28;20020;-52
2022/09/04 04:41:29;;;;;;;18.15;5.05;;;;;;;18.97;67.81;101093.28;4999908;28;20064;-52
2022/09/04 04:45:48;;;;;;;16.50;5.50;;;;;;;19.05;67.28;101087.41;4971778;28;20030;-53
2022/09/04 04:47:43;;;;;;;15.10;5.05;;;;;;;18.99;66.96;101083.03;4970461;28;20041;-53
2022/09/04 04:50:31;;;;;;;12.27;4.20;;;;;;;18.71;68.34;101095.75;5011509;28;20045;-53
2022/09/04 04:53:40;;;;;;;17.23;5.18;;;;;;;18.61;68.32;101092.88;5034040;28;20033;-52
2022/09/04 04:56:22;;;;;;;17.73;4.40;;;;;;;18.65;68.20;101104.00;4972332;28;20034;-51
2022/09/04 04:59:14;;;;;;;15.23;5.22;;;;;;;18.71;68.13;101108.44;5033137;28;20497;-52
2022/09/04 05:02:15;;;;;;;13.57;5.18;;;;;;;18.68;68.12;101108.97;5036331;28;20033;-52
2022/09/04 05:05:04;;;;;;;11.57;4.50;;;;;;;18.79;68.06;101109.91;5050958;28;20426;-50
2022/09/04 05:07:36;;;;;;;15.18;4.72;;;;;;;18.83;68.25;101105.63;5032813;28;20471;-53
2022/09/04 05:10:16;;;;;;;14.80;5.22;;;;;;;18.89;67.71;101112.75;5049121;28;20051;-53
2022/09/04 05:13:01;;;;;;;18.63;4.97;;;;;;;18.95;67.55;101123.38;5039115;28;20044;-50
2022/09/04 05:15:37;;;;;;;11.90;5.03;;;;;;;18.91;68.04;101126.84;5036492;28;20052;-50
2022/09/04 05:18:28;;;;;;;13.88;4.95;;;;;;;18.99;68.08;101121.81;5032762;28;20267;-50
2022/09/04 05:21:07;;;;;;;18.63;4.90;;;;;;;18.97;68.01;101115.81;5033591;28;20406;-51
2022/09/04 05:24:04;;;;;;;14.50;4.10;;;;;;;18.97;68.13;101106.84;5032416;28;20037;-51
2022/09/04 05:26:33;;;;;;;12.95;4.75;;;;;;;18.99;68.15;101107.44;5031509;28;20407;-50
2022/09/04 05:29:12;;;;;;;19.13;4.70;;;;;;;18.98;68.25;101103.06;5032356;28;20091;-50
2022/09/04 05:32:05;;;;;;;14.02;4.38;;;;;;;18.84;69.43;101107.25;5042126;28;20048;-51
2022/09/04 05:34:52;;;;;;;15.40;4.45;;;;;;;18.94;69.29;101107.38;5051801;28;20029;-52
2022/09/04 05:37:25;;;;;;;19.55;4.50;;;;;;;18.92;69.81;101101.38;5051754;28;20035;-52
2022/09/04 05:40:13;;;;;;;15.75;4.18;;;;;;;18.79;69.45;101107.19;5051949;28;20036;-49
2022/09/04 05:43:19;;;;;;;15.90;4.75;;;;;;;18.70;68.83;101102.22;5052585;28;20029;-50
2022/09/04 05:45:52;;;;;;;12.00;4.43;;;;;;;18.64;68.49;101095.06;5035845;28;20097;-49
2022/09/04 05:48:56;;;;;;;18.73;4.97;;;;;;;18.82;67.40;101093.13;5032147;28;20103;-53
2022/09/04 05:51:37;;;;;;;16.15;4.63;;;;;;;18.68;67.64;101095.41;5051820;28;20029;-52
2022/09/04 05:54:30;;;;;;;16.35;4.05;;;;;;;18.51;68.12;101092.75;5051893;28;20029;-50
2022/09/04 05:56:56;;;;;;;13.23;4.07;;;;;;;18.63;67.76;101101.56;5051728;28;20032;-50
2022/09/04 05:59:26;;;;;;;17.83;4.22;;;;;;;18.46;68.26;101106.22;5051669;28;20115;-52
2022/09/04 06:02:17;;;;;;;12.80;4.32;;;;;;;18.56;67.97;101103.66;5042527;28;20095;-50
2022/09/04 06:05:07;;;;;;;15.73;4.57;;;;;;;18.45;68.04;101104.59;5031744;28;20156;-52
2022/09/04 06:07:55;;;;;;;17.80;4.13;;;;;;;18.51;67.54;101109.00;5031584;28;20021;-51
2022/09/04 06:10:46;;;;;;;13.30;4.25;;;;;;;18.26;67.67;101112.19;5031829;28;20092;-51
2022/09/04 06:13:30;;;;;;;16.27;5.07;;;;;;;18.30;67.67;101105.22;5031838;28;20033;-50
2022/09/04 06:16:35;;;;;;;17.98;4.95;;;;;;;18.20;68.13;101105.88;5031208;28;20113;-50
2022/09/04 06:19:23;;;;;;;14.93;4.78;;;;;;;17.93;68.86;101105.81;5032087;28;20025;-51
2022/09/04 06:22:11;;;;;;;13.93;4.75;;;;;;;18.06;68.44;101099.19;5031590;28;20117;-50
2022/09/04 06:25:02;;;;;;;19.83;5.40;;;;;;;17.95;68.33;101100.13;5031259;28;20037;-53
2022/09/04 06:27:43;;;;;;;17.85;5.38;;;;;;;17.70;69.83;101097.81;5046710;28;20439;-53
2022/09/04 06:30:10;;;;;;;15.90;4.53;;;;;;;17.65;70.05;101098.53;5051174;28;20117;-52
2022/09/04 06:33:05;;;;;;;19.08;5.53;;;;;;;17.63;69.85;101095.28;5050293;28;20036;-51
2022/09/04 06:35:35;;;;;;;20.70;5.55;;;;;;;17.75;69.71;101099.81;5044940;28;20041;-53
2022/09/04 06:38:07;;;;;;;23.70;5.47;;;;;;;17.47;70.65;101098.78;5034687;28;20033;-51
2022/09/04 06:41:03;;;;;;;18.13;5.20;;;;;;;17.42;70.66;101104.13;5035299;28;20056;-52
2022/09/04 06:43:46;;;;;;;24.83;5.70;;;;;;;17.66;69.90;101097.50;5035492;28;20072;-50
2022/09/04 06:46:16;;;;;;;17.40;5.40;;;;;;;17.31;70.95;101105.00;5035005;28;20037;-49
2022/09/04 06:49:08;;;;;;;17.40;5.75;;;;;;;17.59;70.01;101091.41;5035017;28;20025;-50
2022/09/04 06:51:59;;;;;;;21.23;5.20;;;;;;;17.57;69.94;101098.16;5035241;28;20029;-52
2022/09/04 06:54:37;;;;;;;18.35;5.28;;;;;;;17.68;69.51;101098.06;5035189;28;20021;-51
2022/09/04 06:57:49;;;;;;;14.43;4.80;;;;;;;17.85;69.07;101102.69;5034981;28;20026;-49
2022/09/04 07:00:19;;;;;;;20.02;5.32;;;;;;;17.54;69.86;101098.63;5031228;28;20045;-50
2022/09/04 07:03:18;;;;;;;14.82;4.72;;;;;;;17.58;69.58;101106.00;5034825;28;20367;-51
2022/09/04 07:05:58;;;;;;;23.90;4.88;;;;;;;17.78;68.85;101110.97;5001448;28;20034;-49
2022/09/04 07:08:45;;;;;;;27.35;5.10;;;;;;;17.72;69.12;101111.13;5052636;28;20029;-50
2022/09/04 07:11:17;;;;;;;16.60;5.07;;;;;;;17.61;70.03;101118.25;5054641;28;20036;-50
2022/09/04 07:14:28;;;;;;;23.05;5.10;;;;;;;17.60;70.24;101120.13;5054890;28;20032;-51
2022/09/04 07:17:00;;;;;;;18.77;5.43;;;;;;;17.66;70.02;101121.88;5054928;28;20364;-49
2022/09/04 07:19:35;;;;;;;18.70;5.00;;;;;;;17.41;71.31;101126.84;5054949;28;20498;-49
2022/09/04 07:22:19;;;;;;;;;;;;;;;17.54;71.24;101133.81;5055144;28;20464;-52
2022/09/04 07:24:55;;;;;;;18.27;5.30;;;;;;;17.36;71.52;101140.28;5054429;28;19928;-51
2022/09/04 07:27:44;;;;;;;25.85;5.65;;;;;;;17.28;72.24;101138.78;5054418;28;20092;-50
2022/09/04 07:30:14;;;;;;;19.15;5.32;;;;;;;17.19;73.17;101140.25;5054577;28;20071;-52
2022/09/04 07:32:55;;;;;;;16.45;4.75;;;;;;;17.49;72.39;101139.13;5044957;28;20029;-50
2022/09/04 07:35:43;;;;;;;19.27;4.72;;;;;;;17.34;72.88;101139.72;5037017;28;20048;-52
2022/09/04 07:38:51;;;;;;;19.15;4.50;;;;;;;17.45;72.85;101127.19;5054453;28;20021;-55
2022/09/04 07:42:10;;;;;;;14.65;4.43;;;;;;;17.37;73.20;101134.59;5054313;28;20033;-52
2022/09/04 07:45:01;;;;;;;21.52;5.57;;;;;;;17.38;72.97;101128.16;4992483;28;20030;-52
2022/09/04 07:47:41;;;;;;;17.60;4.68;;;;;;;17.40;72.54;101138.72;4992523;28;20038;-51
2022/09/04 07:50:18;;;;;;;15.55;4.47;;;;;;;17.53;72.24;101135.69;5043425;28;20045;-51
2022/09/04 07:53:00;;;;;;;18.40;5.00;;;;;;;17.51;72.66;101142.44;5054325;28;20048;-49
2022/09/04 07:55:49;;;;;;;17.38;4.65;;;;;;;17.25;73.66;101133.84;5053491;28;20025;-50
2022/09/04 07:58:43;;;;;;;20.10;4.95;;;;;;;17.25;73.90;101128.44;5054096;28;20414;-51
2022/09/04 08:01:30;;;;;;;16.10;4.80;;;;;;;17.35;73.52;101128.63;5054025;28;20583;-52
2022/09/04 08:04:20;;;;;;;16.15;4.13;;;;;;;17.38;73.66;101117.34;5054148;28;20049;-49
2022/09/04 08:06:48;;;;;;;16.02;4.55;;;;;;;17.45;73.65;101117.19;5053350;28;20051;-51
2022/09/04 08:09:32;;;;;;;19.63;4.32;;;;;;;17.48;73.07;101119.38;5053616;28;20119;-52
2022/09/04 08:12:29;;;;;;;23.00;5.57;;;;;;;17.41;73.47;101113.31;5053591;28;20056;-51
2022/09/04 08:15:21;;;;;;;13.95;4.65;;;;;;;17.52;73.15;101117.81;5053658;28;20081;-50
2022/09/04 08:18:05;;;;;;;18.45;5.10;;;;;;;17.50;72.92;101119.97;5053785;28;20415;-50
2022/09/04 08:20:54;;;;;;;22.65;5.00;;;;;;;17.32;73.70;101121.03;5053943;28;20033;-51
2022/09/04 08:23:30;;;;;;;18.48;4.70;;;;;;;17.36;73.34;101118.63;5053022;28;20025;-49
2022/09/04 08:26:16;;;;;;;13.60;4.40;;;;;;;17.35;73.56;101133.22;5052903;28;20031;-48
2022/09/04 08:28:48;;;;;;;14.65;4.45;;;;;;;17.32;73.65;101133.69;5052477;28;20056;-48
2022/09/04 08:31:38;;;;;;;16.30;4.80;;;;;;;17.33;73.42;101138.06;5053492;28;20025;-51
2022/09/04 08:34:34;;;;;;;15.55;4.55;;;;;;;17.24;73.58;101136.81;5052848;28;20053;-51
2022/09/04 08:37:26;;;;;;;23.70;5.45;;;;;;;17.08;73.81;101125.72;5052741;28;20017;-49
2022/09/04 08:40:03;;;;;;;24.33;5.80;;;;;;;17.02;73.36;101125.84;5017492;28;20414;-48
2022/09/04 08:43:08;;;;;;;18.73;4.47;;;;;;;16.85;74.27;101117.69;5032671;28;20057;-49
2022/09/04 08:46:12;;;;;;;19.48;4.63;;;;;;;16.73;74.37;101119.63;5020888;28;20091;-48
2022/09/04 08:49:09;;;;;;;19.65;5.30;;;;;;;16.93;73.08;101114.59;5032869;28;20084;-50
2022/09/04 08:51:55;;;;;;;21.10;5.00;;;;;;;16.78;73.21;101112.44;5032417;28;20033;-50
2022/09/04 08:54:24;;;;;;;16.35;4.40;;;;;;;16.72;73.41;101115.28;5032751;28;20033;-51
2022/09/04 08:57:30;;;;;;;26.02;5.57;;;;;;;16.73;73.02;101109.63;5032476;28;20030;-49
2022/09/04 09:00:05;;;;;;;19.23;5.38;;;;;;;16.77;72.59;101112.69;5031825;28;20022;-50
2022/09/04 09:02:34;;;;;;;16.05;4.65;;;;;;;16.82;72.48;101108.19;5032479;28;20036;-51
2022/09/04 09:05:21;;;;;;;24.55;4.88;;;;;;;16.78;72.52;101098.91;5031891;28;20079;-51
2022/09/04 09:08:21;;;;;;;16.50;5.00;;;;;;;16.54;73.31;101105.41;5032069;28;20410;-52
2022/09/04 09:11:26;;;;;;;14.52;4.10;;;;;;;16.52;73.57;101102.94;5032442;28;20101;-55
2022/09/04 09:14:37;;;;;;;25.77;6.10;;;;;;;16.60;73.36;101104.44;5032399;28;20064;-49
2022/09/04 09:17:22;;;;;;;21.38;5.50;;;;;;;16.80;72.66;101110.31;5031919;28;20454;-49
2022/09/04 09:20:23;;;;;;;20.50;5.63;;;;;;;16.61;72.94;101101.53;5031819;28;20064;-51
2022/09/04 09:23:10;;;;;;;25.30;5.60;;;;;;;16.69;72.73;101104.91;5029702;28;20036;-52
2022/09/04 09:26:11;;;;;;;24.67;5.53;;;;;;;16.78;72.29;101117.03;5031877;28;20040;-53
2022/09/04 09:29:04;;;;;;;19.98;5.38;;;;;;;16.52;73.22;101102.13;5045863;28;20044;-48
2022/09/04 09:31:51;;;;;;;21.63;5.30;;;;;;;16.64;72.90;101106.44;5051833;28;20078;-48
2022/09/04 09:34:32;;;;;;;21.00;5.50;;;;;;;16.62;72.90;101108.56;5051372;28;20036;-49
2022/09/04 09:37:17;;;;;;;14.50;4.88;;;;;;;16.59;73.05;101109.03;5052173;28;20032;-51
2022/09/04 09:40:02;;;;;;;22.67;5.18;;;;;;;16.61;72.93;101101.53;5052006;28;20116;-48
2022/09/04 09:42:48;;;;;;;21.17;5.65;;;;;;;16.42;73.87;101101.91;5032665;28;20422;-49
2022/09/04 09:46:03;;;;;;;20.90;5.47;;;;;;;16.36;74.61;101104.50;5031704;28;20029;-49
2022/09/04 09:48:54;;;;;;;17.75;5.47;;;;;;;16.43;74.44;101112.47;5002326;28;20499;-49
2022/09/04 09:51:57;;;;;;;23.75;5.68;;;;;;;16.11;75.94;101117.47;5051602;28;20028;-51
2022/09/04 09:54:54;;;;;;;18.48;5.60;;;;;;;16.18;75.60;101117.34;5051295;28;20036;-50
2022/09/04 09:58:00;;;;;;;18.25;5.57;;;;;;;16.19;75.98;101111.69;5051727;28;20036;-50
2022/09/04 10:00:49;;;;;;;20.50;5.18;;;;;;;16.37;75.45;101105.31;5051705;28;20075;-51
2022/09/04 10:03:42;;;;;;;16.95;5.07;;;;;;;16.29;75.67;101108.41;5020292;28;20056;-49
2022/09/04 10:06:43;;;;;;;22.42;5.60;;;;;;;16.26;75.78;101108.88;5050790;28;20490;-49
2022/09/04 10:09:23;;;;;;;25.67;5.18;;;;;;;16.20;76.19;101109.81;5051495;28;20024;-49
2022/09/04 10:12:18;;;;;;;22.38;5.65;;;;;;;16.20;76.32;101112.53;5050962;28;20475;-49
2022/09/04 10:14:54;;;;;;;16.98;5.35;;;;;;;16.18;76.44;101106.53;5050800;28;20043;-49
2022/09/04 10:17:39;;;;;;;27.58;5.90;;;;;;;16.18;76.69;101101.97;5051491;28;20041;-49
2022/09/04 10:20:48;;;;;;;28.20;6.25;;;;;;;16.14;77.05;101105.38;5051420;28;20021;-49
2022/09/04 10:23:35;;;;;;;25.90;5.88;;;;;;;16.07;76.81;101106.31;5042859;28;20032;-52
2022/09/04 10:26:01;;;;;;;19.45;5.50;;;;;;;15.93;77.31;101104.91;5070903;28;20080;-48
2022/09/04 10:28:48;;;;;;;20.52;5.35;;;;;;;16.03;76.85;101109.72;5070561;28;20143;-50
2022/09/04 10:31:26;;;;;;;22.90;5.95;;;;;;;16.15;76.07;101112.41;5071114;28;20496;-48
2022/09/04 10:34:12;;;;;;;16.85;5.82;;;;;;;16.10;75.88;101113.97;5071027;28;20036;-49
2022/09/04 10:36:57;;;;;;;20.73;5.13;;;;;;;16.14;75.97;101111.59;5071312;28;20024;-49
2022/09/04 10:42:42;;;;;;;20.25;5.75;;;;;;;15.94;76.68;101122.75;5070989;28;20091;-49
2022/09/04 10:45:32;;;;;;;22.03;5.63;;;;;;;15.94;76.53;101117.38;5070725;28;20078;-48
2022/09/04 10:48:14;;;;;;;21.33;5.40;;;;;;;15.77;77.32;101117.25;5070924;28;20261;-50
2022/09/04 10:51:17;;;;;;;16.88;5.07;;;;;;;15.86;76.98;101120.41;5071193;28;20054;-50
2022/09/04 10:53:51;;;;;;;21.75;5.15;;;;;;;15.94;76.46;101117.38;5067129;28;20041;-51
2022/09/04 10:56:40;;;;;;;24.25;5.80;;;;;;;15.87;76.65;101110.41;5070684;28;20082;-48
2022/09/04 10:59:19;;;;;;;16.65;5.30;;;;;;;15.98;76.26;101117.69;5071220;28;20045;-51
2022/09/04 11:02:12;;;;;;;17.77;5.22;;;;;;;15.72;77.36;101116.31;5071359;28;20032;-52
2022/09/04 11:05:16;;;;;;;19.63;5.05;;;;;;;15.79;77.30;101108.91;5070805;28;20033;-48
2022/09/04 11:08:12;;;;;;;22.27;5.07;;;;;;;15.80;77.07;101105.16;5070890;28;20032;-51
2022/09/04 11:10:46;;;;;;;17.88;5.28;;;;;;;15.87;76.69;101103.13;5071061;28;20025;-50
2022/09/04 11:14:04;;;;;;;23.13;5.35;;;;;;;15.86;76.67;101103.38;5071189;28;20032;-51
2022/09/04 11:16:37;;;;;;;22.08;5.30;;;;;;;15.94;76.30;101111.16;5062186;28;20055;-52
2022/09/04 11:19:47;;;;;;;19.45;5.40;;;;;;;15.81;76.81;101101.38;5050743;28;20029;-51
2022/09/04 11:22:33;;;;;;;19.40;5.35;;;;;;;16.03;75.84;101107.84;5037562;28;20045;-52
2022/09/04 11:25:20;;;;;;;17.75;4.55;;;;;;;15.99;75.58;101104.00;5053212;28;20029;-51
2022/09/04 11:28:20;;;;;;;15.68;4.55;;;;;;;16.02;75.56;101098.09;5054814;28;20025;-51
2022/09/04 11:30:54;;;;;;;17.50;5.00;;;;;;;16.00;75.77;101111.03;5054394;28;20041;-51
2022/09/04 11:33:39;;;;;;;27.30;5.60;;;;;;;15.89;76.04;101105.63;5054316;28;20438;-51
2022/09/04 11:36:19;;;;;;;23.10;4.47;;;;;;;16.03;76.05;101115.13;5054100;28;20037;-52
2022/09/04 11:39:24;;;;;;;18.88;5.22;;;;;;;15.99;76.19;101109.38;5054337;28;20025;-52
2022/09/04 11:42:02;;;;;;;22.73;5.43;;;;;;;15.92;76.50;101107.84;5054070;28;20086;-52
2022/09/04 11:45:25;;;;;;;24.55;6.10;;;;;;;15.88;76.53;101103.97;5053498;28;20041;-51
2022/09/04 11:48:22;;;;;;;21.73;5.03;;;;;;;15.83;77.16;101097.41;4992510;28;20030;-49
2022/09/04 11:51:00;;;;;;;25.17;5.38;;;;;;;15.83;77.55;101102.00;4992270;28;20089;-51
2022/09/04 11:53:38;;;;;;;19.77;5.90;;;;;;;15.98;76.76;101105.03;5047060;28;20045;-51
2022/09/04 11:56:25;;;;;;;20.52;5.85;;;;;;;15.84;76.89;101096.34;5053261;28;20029;-52
2022/09/04 11:59:10;;;;;;;18.73;5.80;;;;;;;15.77;77.59;101100.22;5053944;28;20027;-51
2022/09/04 12:01:55;;;;;;;30.00;5.70;;;;;;;15.78;77.45;101099.16;5053481;28;20021;-49
2022/09/04 12:04:37;;;;;;;21.27;4.80;;;;;;;15.91;76.90;101107.03;5053622;28;20033;-48
2022/09/04 12:07:39;;;;;;;20.58;5.25;;;;;;;15.69;77.15;101100.56;5053518;28;20067;-52
2022/09/04 12:10:05;;;;;;;21.45;5.47;;;;;;;15.65;77.18;101094.78;5053680;28;20028;-49
2022/09/04 12:12:52;;;;;;;20.42;5.03;;;;;;;15.69;77.24;101090.59;5053687;28;20037;-49
2022/09/04 12:15:53;;;;;;;31.98;5.57;;;;;;;15.90;76.46;101094.59;5053137;28;20033;-50
2022/09/04 12:18:53;;;;;;;17.92;4.88;;;;;;;15.91;76.00;101093.53;5053474;28;20064;-50
2022/09/04 12:21:46;;;;;;;15.57;4.28;;;;;;;15.90;75.88;101089.19;5053472;28;20044;-50
2022/09/04 12:24:40;;;;;;;25.70;5.70;;;;;;;15.91;76.01;101090.81;5053144;28;20083;-49
2022/09/04 12:27:47;;;;;;;17.25;4.45;;;;;;;16.01;75.61;101090.25;5053447;28;20029;-49
2022/09/04 12:30:49;;;;;;;19.88;4.75;;;;;;;15.95;75.67;101089.31;5044628;28;20087;-50
2022/09/04 12:33:51;;;;;;;16.70;4.97;;;;;;;15.81;76.56;101079.78;5001892;28;20045;-48
2022/09/04 12:36:33;;;;;;;22.58;5.15;;;;;;;15.93;76.13;101088.69;5038695;28;20033;-50
2022/09/04 12:39:26;;;;;;;25.25;6.32;;;;;;;15.85;76.19;101083.66;5033074;28;20585;-48
2022/09/04 12:41:55;;;;;;;24.75;5.03;;;;;;;15.83;76.13;101077.69;5032227;28;20411;-50
2022/09/04 12:44:33;;;;;;;20.77;5.25;;;;;;;15.83;76.67;101083.91;5050669;28;20317;-50
2022/09/04 12:47:25;;;;;;;18.77;4.97;;;;;;;15.95;75.89;101083.91;5045779;28;20221;-50
2022/09/04 12:50:32;;;;;;;18.75;4.53;;;;;;;15.71;77.21;101079.53;5036516;28;20068;-50
2022/09/04 12:53:29;;;;;;;22.52;4.97;;;;;;;15.58;77.39;101080.56;5035083;28;20055;-49